Time;durP1;ratioP1;P1;durP2;ratioP2;P2;SDS_P1;SDS_P2;PMS_P1;PMS_P2;Temp;Humidity;BMP_temperature;BMP_pressure;BME280_temperature;BME280_humidity;BME280_pressure;Samples;Min_cycle;Max_cycle;Signal;HPM_P1;HPM_P2
2022/09/01 00:01:48;;;;;;;1.90;0.90;;;14.90;99.90;;;;;;5052930;28;20057;-76
2022/09/01 00:04:17;;;;;;;2.85;1.52;;;14.90;99.90;;;;;;5054367;28;20694;-70
2022/09/01 00:06:43;;;;;;;2.50;0.80;;;15.10;99.90;;;;;;5053561;28;20049;-70
2022/09/01 00:09:12;;;;;;;1.80;0.60;;;14.90;99.90;;;;;;5035791;28;20049;-70
2022/09/01 00:11:41;;;;;;;4.35;1.00;;;15.00;99.90;;;;;;5053472;28;20702;-71
2022/09/01 00:14:08;;;;;;;2.88;0.90;;;14.90;99.90;;;;;;5036562;28;20045;-70
2022/09/01 00:16:34;;;;;;;3.30;0.60;;;14.90;99.90;;;;;;5054660;28;20079;-69
2022/09/01 00:19:00;;;;;;;4.30;0.77;;;14.90;99.90;;;;;;5035354;28;20053;-70
2022/09/01 00:21:32;;;;;;;2.38;1.00;;;14.90;99.90;;;;;;5035928;28;20055;-70
2022/09/01 00:23:59;;;;;;;5.30;0.80;;;14.90;99.90;;;;;;5053188;28;20094;-72
2022/09/01 00:26:25;;;;;;;6.72;1.30;;;14.80;99.90;;;;;;5054421;28;20080;-70
2022/09/01 00:28:51;;;;;;;1.65;0.65;;;14.90;99.90;;;;;;5053216;28;20068;-71
2022/09/01 00:31:18;;;;;;;2.67;0.80;;;14.80;99.90;;;;;;5053760;28;20079;-69
2022/09/01 00:33:45;;;;;;;2.67;0.90;;;14.80;99.90;;;;;;5052784;28;20059;-69
2022/09/01 00:36:11;;;;;;;1.63;0.70;;;14.80;99.90;;;;;;5052947;28;20083;-70
2022/09/01 00:38:38;;;;;;;4.18;0.80;;;14.70;99.90;;;;;;5052994;28;20036;-71
2022/09/01 00:41:06;;;;;;;1.85;0.70;;;14.70;99.90;;;;;;5053044;28;20045;-69
2022/09/01 00:43:58;;;;;;;3.58;0.80;;;14.70;99.90;;;;;;5053777;28;20041;-73
2022/09/01 00:46:27;;;;;;;4.07;0.70;;;14.70;99.90;;;;;;5052754;28;20089;-69
2022/09/01 00:48:58;;;;;;;5.57;0.73;;;14.80;99.90;;;;;;5052765;28;20040;-69
2022/09/01 00:51:24;;;;;;;1.75;0.65;;;14.70;99.90;;;;;;5034197;28;20152;-68
2022/09/01 00:53:51;;;;;;;1.70;1.17;;;14.60;99.90;;;;;;5053839;28;20057;-72
2022/09/01 00:56:17;;;;;;;3.03;0.80;;;14.60;99.90;;;;;;5052694;28;20044;-69
2022/09/01 00:58:43;;;;;;;2.75;0.80;;;14.60;99.90;;;;;;5052550;28;20041;-71
2022/09/01 01:01:10;;;;;;;4.53;0.80;;;14.60;99.90;;;;;;5052417;28;20088;-71
2022/09/01 01:03:38;;;;;;;1.33;0.70;;;14.50;99.90;;;;;;5053573;28;20056;-71
2022/09/01 01:06:07;;;;;;;2.13;0.90;;;14.50;99.90;;;;;;5052270;28;20052;-71
2022/09/01 01:08:36;;;;;;;2.10;0.70;;;14.50;99.90;;;;;;5052655;28;20037;-69
2022/09/01 01:11:16;;;;;;;2.78;0.90;;;14.50;99.90;;;;;;5052278;28;20476;-69
2022/09/01 01:14:10;;;;;;;4.72;0.90;;;14.40;99.90;;;;;;5051684;28;20048;-74
2022/09/01 01:16:43;;;;;;;4.03;0.82;;;14.50;99.90;;;;;;4971384;28;20055;-71
2022/09/01 01:25:06;;;;;;;2.08;1.05;;;14.30;99.90;;;;;;4969481;28;20479;-71
2022/09/01 01:27:33;;;;;;;2.58;0.80;;;14.30;99.90;;;;;;4970723;28;20525;-71
2022/09/01 01:30:08;;;;;;;2.47;0.90;;;14.30;99.90;;;;;;4971115;28;20192;-70
2022/09/01 01:32:34;;;;;;;;;;;14.30;99.90;;;;;;4969453;28;20490;-70
2022/09/01 01:35:04;;;;;;;1.67;0.90;;;14.30;99.90;;;;;;4970869;28;19926;-71
2022/09/01 01:37:34;;;;;;;3.47;0.90;;;14.30;99.90;;;;;;4970377;28;20053;-69
2022/09/01 01:40:00;;;;;;;2.95;0.80;;;14.40;99.90;;;;;;4970845;28;20506;-71
2022/09/01 01:42:27;;;;;;;2.75;0.70;;;14.20;99.90;;;;;;4968936;28;20203;-70
2022/09/01 01:44:53;;;;;;;4.20;1.05;;;14.20;99.90;;;;;;4970612;28;20043;-70
2022/09/01 01:47:20;;;;;;;2.28;1.00;;;14.20;99.90;;;;;;4970582;28;20429;-70
2022/09/01 01:49:46;;;;;;;2.08;0.93;;;14.10;99.90;;;;;;4970453;28;20042;-70
2022/09/01 01:52:16;;;;;;;4.28;0.88;;;14.30;99.90;;;;;;4969957;28;20406;-69
2022/09/01 01:54:44;;;;;;;1.60;0.80;;;14.20;99.90;;;;;;5050820;28;20057;-69
2022/09/01 01:57:15;;;;;;;4.13;0.90;;;14.10;99.90;;;;;;5052561;28;20080;-69
2022/09/01 01:59:42;;;;;;;5.80;1.15;;;14.10;99.90;;;;;;5051241;28;20059;-68
2022/09/01 02:02:11;;;;;;;2.70;1.20;;;14.10;99.90;;;;;;5066875;28;20155;-70
2022/09/01 02:04:39;;;;;;;2.15;1.20;;;14.10;99.90;;;;;;5069234;28;20040;-75
2022/09/01 02:07:10;;;;;;;2.03;0.80;;;14.10;99.90;;;;;;5070985;28;20048;-70
2022/09/01 02:09:37;;;;;;;2.35;1.10;;;14.00;99.90;;;;;;5052598;28;20496;-69
2022/09/01 02:12:03;;;;;;;1.50;0.90;;;14.00;99.90;;;;;;5069483;28;20052;-69
2022/09/01 02:14:28;;;;;;;1.85;0.82;;;14.00;99.90;;;;;;5062588;28;20088;-72
2022/09/01 02:16:57;;;;;;;2.97;1.13;;;14.00;99.90;;;;;;5056527;28;20408;-76
2022/09/01 02:19:23;;;;;;;5.75;1.00;;;14.00;99.90;;;;;;5065853;28;20060;-71
2022/09/01 02:21:53;;;;;;;4.43;1.00;;;14.00;99.90;;;;;;5070144;28;20399;-70
2022/09/01 02:24:19;;;;;;;5.63;1.25;;;14.00;99.90;;;;;;5050221;28;20048;-71
2022/09/01 02:26:46;;;;;;;3.30;1.13;;;14.00;99.90;;;;;;5051068;28;20044;-76
2022/09/01 02:29:17;;;;;;;2.05;1.10;;;14.00;99.90;;;;;;5051067;28;20091;-73
2022/09/01 02:31:45;;;;;;;2.03;1.13;;;14.00;99.90;;;;;;5050701;28;20049;-74
2022/09/01 02:34:12;;;;;;;6.40;1.23;;;14.00;99.90;;;;;;5050993;28;20033;-73
2022/09/01 02:36:48;;;;;;;1.92;1.15;;;14.00;99.90;;;;;;5050976;28;20045;-73
2022/09/01 02:39:19;;;;;;;2.75;1.20;;;14.00;99.90;;;;;;5054040;28;20055;-72
2022/09/01 02:41:46;;;;;;;3.03;1.27;;;14.00;99.90;;;;;;5070806;28;20483;-69
2022/09/01 02:44:13;;;;;;;5.05;1.30;;;14.00;99.90;;;;;;5070050;28;20503;-70
2022/09/01 02:46:41;;;;;;;4.07;1.02;;;14.00;99.90;;;;;;5070273;28;20056;-73
2022/09/01 02:49:18;;;;;;;3.63;1.15;;;14.00;99.90;;;;;;5055687;28;20053;-68
2022/09/01 02:51:47;;;;;;;2.30;1.25;;;14.00;99.90;;;;;;5062341;28;20125;-72
2022/09/01 02:54:15;;;;;;;5.53;1.38;;;13.90;99.90;;;;;;5070337;28;20109;-70
2022/09/01 02:56:46;;;;;;;5.03;1.40;;;14.00;99.90;;;;;;5070105;28;20489;-71
2022/09/01 02:59:16;;;;;;;5.07;1.90;;;14.00;99.90;;;;;;5070415;28;20048;-72
2022/09/01 03:01:46;;;;;;;2.75;1.02;;;14.00;99.90;;;;;;5047555;28;20135;-72
2022/09/01 03:04:12;;;;;;;3.47;1.00;;;14.00;99.90;;;;;;5065234;28;20037;-71
2022/09/01 03:06:39;;;;;;;1.45;0.93;;;14.00;99.90;;;;;;5062726;28;20055;-71
2022/09/01 03:09:08;;;;;;;2.40;1.10;;;14.00;99.90;;;;;;5052790;28;20674;-72
2022/09/01 03:11:36;;;;;;;3.40;1.00;;;14.00;99.90;;;;;;5049984;28;20487;-72
2022/09/01 03:14:03;;;;;;;3.47;1.08;;;14.00;99.90;;;;;;5050292;28;20049;-69
2022/09/01 03:16:32;;;;;;;2.33;1.00;;;14.00;99.90;;;;;;5050352;28;20052;-73
2022/09/01 03:18:58;;;;;;;2.10;1.00;;;14.00;99.90;;;;;;5070017;28;20175;-69
2022/09/01 03:21:25;;;;;;;1.85;1.10;;;14.10;99.90;;;;;;5058024;28;20055;-71
2022/09/01 03:23:51;;;;;;;2.33;0.90;;;14.00;99.90;;;;;;5048996;28;20047;-71
2022/09/01 03:26:21;;;;;;;1.80;0.90;;;14.00;99.90;;;;;;5063795;28;20040;-74
2022/09/01 03:28:48;;;;;;;3.70;1.20;;;14.00;99.90;;;;;;5069883;28;20048;-70
2022/09/01 03:31:14;;;;;;;2.20;1.00;;;14.00;99.90;;;;;;5069038;28;20454;-70
2022/09/01 03:33:41;;;;;;;2.00;1.20;;;14.00;99.90;;;;;;5065707;28;20041;-72
2022/09/01 03:36:07;;;;;;;2.33;1.10;;;14.00;99.90;;;;;;5053204;28;20041;-70
2022/09/01 03:38:34;;;;;;;1.63;1.00;;;14.00;99.90;;;;;;5054285;28;20041;-70
2022/09/01 03:41:04;;;;;;;2.70;1.10;;;14.00;99.90;;;;;;5054191;28;20067;-71
2022/09/01 03:43:32;;;;;;;4.15;1.38;;;14.00;99.90;;;;;;5053753;28;20060;-73
2022/09/01 03:45:59;;;;;;;2.45;1.20;;;13.90;99.90;;;;;;5037935;28;20124;-70
2022/09/01 03:48:27;;;;;;;3.10;1.08;;;14.00;99.90;;;;;;5064161;28;20055;-75
2022/09/01 03:50:55;;;;;;;2.25;1.17;;;14.00;99.90;;;;;;5087449;28;20055;-69
2022/09/01 03:53:26;;;;;;;1.80;0.90;;;13.90;99.90;;;;;;5053933;28;20386;-73
2022/09/01 03:55:53;;;;;;;4.10;1.20;;;14.00;99.90;;;;;;5054066;28;20060;-69
2022/09/01 03:58:19;;;;;;;2.35;1.10;;;13.90;99.90;;;;;;5054711;28;20040;-71
2022/09/01 04:00:49;;;;;;;1.83;1.05;;;13.90;99.90;;;;;;5055850;28;20381;-69
2022/09/01 04:03:20;;;;;;;3.05;1.15;;;13.90;99.90;;;;;;5073909;28;20403;-71
2022/09/01 04:05:47;;;;;;;2.25;1.17;;;14.00;99.90;;;;;;5073986;28;20094;-77
2022/09/01 04:08:13;;;;;;;3.90;1.00;;;13.80;99.90;;;;;;5071644;28;20472;-72
2022/09/01 04:10:51;;;;;;;2.58;1.20;;;14.00;99.90;;;;;;5077637;28;20056;-70
2022/09/01 04:13:20;;;;;;;1.83;1.15;;;13.90;99.90;;;;;;5073621;28;20052;-71
2022/09/01 04:15:46;;;;;;;2.03;1.10;;;13.80;99.90;;;;;;5073170;28;20511;-75
2022/09/01 04:18:22;;;;;;;2.70;1.23;;;13.70;99.90;;;;;;5069178;28;20083;-71
2022/09/01 04:20:56;;;;;;;1.98;1.20;;;13.70;99.90;;;;;;5077746;28;20044;-70
2022/09/01 04:23:29;;;;;;;2.35;1.30;;;13.70;99.90;;;;;;5055720;28;20099;-71
2022/09/01 04:25:59;;;;;;;2.85;1.10;;;13.70;99.90;;;;;;5056581;28;20076;-71
2022/09/01 04:28:32;;;;;;;8.27;1.50;;;13.70;99.90;;;;;;5054522;28;20396;-71
2022/09/01 04:30:59;;;;;;;3.05;1.52;;;13.60;99.90;;;;;;5052852;28;20120;-69
2022/09/01 04:33:36;;;;;;;1.65;0.98;;;13.60;99.90;;;;;;5053225;28;20499;-71
2022/09/01 04:36:22;;;;;;;2.70;1.10;;;13.60;99.90;;;;;;5053016;28;20041;-69
2022/09/01 04:38:53;;;;;;;2.97;1.20;;;13.60;99.90;;;;;;5036372;28;20562;-70
2022/09/01 04:41:24;;;;;;;4.53;1.63;;;13.50;99.90;;;;;;5053246;28;20400;-70
2022/09/01 04:43:51;;;;;;;1.90;1.20;;;13.50;99.90;;;;;;5053088;28;20399;-70
2022/09/01 04:46:20;;;;;;;2.33;1.33;;;13.50;99.90;;;;;;5034637;28;20045;-70
2022/09/01 04:48:47;;;;;;;2.80;1.33;;;13.40;99.90;;;;;;5058525;28;20048;-72
2022/09/01 04:51:14;;;;;;;3.00;1.50;;;13.40;99.90;;;;;;5073110;28;20036;-72
2022/09/01 04:53:47;;;;;;;3.05;1.50;;;13.50;99.90;;;;;;5072823;28;20068;-71
2022/09/01 04:56:18;;;;;;;3.38;1.52;;;13.40;99.90;;;;;;5072707;28;20099;-71
2022/09/01 04:58:45;;;;;;;2.55;1.30;;;13.50;99.90;;;;;;5072348;28;20098;-69
2022/09/01 05:01:18;;;;;;;2.75;1.50;;;13.30;99.90;;;;;;5072999;28;20053;-70
2022/09/01 05:03:44;;;;;;;4.22;1.70;;;13.30;99.90;;;;;;5072688;28;20041;-70
2022/09/01 05:06:18;;;;;;;3.33;1.50;;;13.30;99.90;;;;;;5054480;28;20595;-70
2022/09/01 05:08:45;;;;;;;3.00;1.50;;;13.30;99.90;;;;;;5054824;28;20098;-70
2022/09/01 05:11:15;;;;;;;5.28;1.42;;;13.40;99.90;;;;;;5070574;28;20043;-72
2022/09/01 05:13:46;;;;;;;5.45;1.58;;;13.30;99.90;;;;;;5054856;28;20061;-70
2022/09/01 05:16:14;;;;;;;3.10;1.60;;;13.30;99.90;;;;;;5072742;28;20399;-72
2022/09/01 05:18:46;;;;;;;3.10;1.67;;;13.30;99.90;;;;;;5072247;28;20044;-70
2022/09/01 05:21:18;;;;;;;3.05;1.60;;;13.20;99.90;;;;;;5070856;28;20033;-73
2022/09/01 05:23:45;;;;;;;4.03;1.40;;;13.20;99.90;;;;;;5054729;28;20059;-75
2022/09/01 05:26:21;;;;;;;3.28;1.60;;;13.10;99.90;;;;;;5052508;28;20052;-70
2022/09/01 05:28:49;;;;;;;9.35;2.03;;;13.10;99.90;;;;;;5034652;28;20097;-70
2022/09/01 05:31:18;;;;;;;4.40;1.50;;;13.20;99.90;;;;;;5053408;28;20091;-71
2022/09/01 05:33:48;;;;;;;2.15;1.48;;;13.20;99.90;;;;;;5051988;28;20845;-71
2022/09/01 05:36:20;;;;;;;5.25;1.70;;;13.10;99.90;;;;;;5034326;28;20053;-69
2022/09/01 05:38:46;;;;;;;3.78;1.50;;;13.30;99.90;;;;;;5051981;28;20048;-69
2022/09/01 05:41:14;;;;;;;5.20;1.40;;;13.10;99.90;;;;;;5051591;28;20437;-70
2022/09/01 05:43:50;;;;;;;4.55;1.55;;;13.20;99.90;;;;;;5035275;28;20411;-73
2022/09/01 05:46:19;;;;;;;3.97;1.63;;;13.20;99.90;;;;;;5068229;28;20045;-69
2022/09/01 05:48:48;;;;;;;2.67;1.38;;;13.20;99.90;;;;;;5071477;28;20055;-78
2022/09/01 05:51:18;;;;;;;3.22;1.08;;;13.10;99.90;;;;;;5058673;28;20055;-72
2022/09/01 05:53:50;;;;;;;3.83;1.67;;;13.10;99.90;;;;;;5052232;28;20602;-74
2022/09/01 05:56:18;;;;;;;3.25;1.67;;;13.20;99.90;;;;;;5033946;28;20092;-73
2022/09/01 05:58:47;;;;;;;2.25;1.30;;;13.20;99.90;;;;;;5050782;28;20083;-71
2022/09/01 06:01:39;;;;;;;4.75;1.67;;;13.20;99.90;;;;;;5052526;28;20116;-71
2022/09/01 06:04:08;;;;;;;3.88;1.67;;;13.30;99.90;;;;;;5049207;28;20408;-70
2022/09/01 06:06:44;;;;;;;3.45;1.50;;;13.40;99.90;;;;;;5051516;28;20048;-71
2022/09/01 06:09:10;;;;;;;2.92;1.75;;;13.40;99.90;;;;;;5051355;28;20064;-68
2022/09/01 06:11:36;;;;;;;5.95;1.65;;;13.50;99.90;;;;;;5033305;28;20057;-73
2022/09/01 06:14:02;;;;;;;3.63;1.58;;;13.60;99.90;;;;;;5052308;28;20049;-70
2022/09/01 06:16:29;;;;;;;4.97;2.05;;;13.60;99.90;;;;;;5051153;28;20040;-71
2022/09/01 06:18:58;;;;;;;5.03;1.73;;;13.80;99.90;;;;;;5033175;28;20084;-72
2022/09/01 06:21:25;;;;;;;6.63;1.83;;;13.80;99.90;;;;;;5051061;28;20052;-73
2022/09/01 06:23:54;;;;;;;7.43;1.75;;;13.70;99.90;;;;;;5052136;28;20040;-71
2022/09/01 06:26:25;;;;;;;5.82;2.10;;;13.80;99.90;;;;;;5038488;28;20060;-70
2022/09/01 06:28:53;;;;;;;14.85;2.88;;;13.80;99.90;;;;;;5070546;28;20123;-73
2022/09/01 06:31:22;;;;;;;8.93;2.50;;;13.80;99.90;;;;;;5070796;28;20881;-73
2022/09/01 06:33:52;;;;;;;5.32;2.13;;;13.90;99.90;;;;;;5070858;28;20494;-76
2022/09/01 06:36:22;;;;;;;4.43;1.80;;;13.90;99.90;;;;;;5068350;28;20045;-71
2022/09/01 06:38:50;;;;;;;4.43;1.45;;;14.00;99.90;;;;;;5070980;28;20056;-70
2022/09/01 06:41:18;;;;;;;7.18;1.67;;;14.30;99.90;;;;;;5065175;28;20080;-73
2022/09/01 06:43:45;;;;;;;3.80;1.92;;;14.60;99.90;;;;;;5069907;28;20044;-72
2022/09/01 06:46:11;;;;;;;5.28;1.45;;;14.40;99.90;;;;;;5058003;28;20040;-68
2022/09/01 06:48:38;;;;;;;3.60;1.42;;;14.60;99.90;;;;;;5070476;28;20048;-72
2022/09/01 06:51:08;;;;;;;3.60;1.60;;;14.80;99.90;;;;;;5050482;28;20547;-72
2022/09/01 06:53:34;;;;;;;3.10;1.50;;;14.80;99.90;;;;;;5046037;28;20060;-76
2022/09/01 06:56:01;;;;;;;5.07;2.10;;;14.90;99.90;;;;;;5078593;28;20059;-71
2022/09/01 06:58:28;;;;;;;5.28;1.63;;;15.00;99.90;;;;;;5081139;28;20108;-71
2022/09/01 07:00:54;;;;;;;3.47;1.60;;;15.00;99.90;;;;;;5055929;28;20549;-69
2022/09/01 07:03:21;;;;;;;4.75;2.33;;;15.10;99.90;;;;;;5050088;28;20068;-71
2022/09/01 07:05:50;;;;;;;5.93;1.70;;;15.00;99.90;;;;;;5050575;28;20127;-70
2022/09/01 07:08:18;;;;;;;5.88;1.70;;;15.10;99.90;;;;;;5052326;28;20048;-71
2022/09/01 07:10:48;;;;;;;3.20;1.50;;;15.20;99.90;;;;;;5051636;28;20515;-72
2022/09/01 07:13:21;;;;;;;8.30;1.50;;;15.20;99.90;;;;;;5062073;28;20372;-69
2022/09/01 07:15:52;;;;;;;14.43;2.00;;;15.40;99.90;;;;;;5090664;28;20036;-75
2022/09/01 07:18:21;;;;;;;3.75;1.58;;;15.50;99.90;;;;;;5089594;28;20047;-71
2022/09/01 07:20:47;;;;;;;3.05;1.40;;;15.60;99.90;;;;;;5076333;28;20094;-73
2022/09/01 07:23:17;;;;;;;2.60;1.50;;;15.80;99.90;;;;;;5069603;28;20040;-71
2022/09/01 07:25:46;;;;;;;4.25;1.33;;;15.90;99.90;;;;;;5063252;28;20069;-72
2022/09/01 07:28:14;;;;;;;7.50;1.73;;;16.00;99.90;;;;;;5074456;28;20029;-69
2022/09/01 07:30:47;;;;;;;3.70;1.35;;;16.10;99.90;;;;;;5060869;28;20045;-70
2022/09/01 07:33:14;;;;;;;4.43;1.48;;;16.20;99.90;;;;;;5072649;28;20040;-70
2022/09/01 07:35:41;;;;;;;4.70;1.23;;;16.50;99.90;;;;;;5090339;28;20080;-74
2022/09/01 07:38:08;;;;;;;3.92;1.30;;;16.60;99.90;;;;;;5070794;28;20029;-80
2022/09/01 07:40:37;;;;;;;4.40;1.05;;;16.50;99.90;;;;;;5055920;28;20122;-76
2022/09/01 07:43:14;;;;;;;6.90;1.30;;;16.60;99.90;;;;;;5068145;28;20036;-71
2022/09/01 07:45:44;;;;;;;2.28;1.20;;;16.80;99.90;;;;;;5090124;28;20503;-71
2022/09/01 07:48:09;;;;;;;12.82;1.35;;;16.90;99.90;;;;;;5061571;28;20041;-71
2022/09/01 07:50:39;;;;;;;2.83;1.00;;;16.90;99.90;;;;;;5074973;28;20371;-70
2022/09/01 07:53:07;;;;;;;5.57;1.13;;;17.10;99.90;;;;;;5085015;28;20045;-70
2022/09/01 07:55:33;;;;;;;3.83;1.23;;;17.20;99.90;;;;;;5086278;28;20399;-71
2022/09/01 07:57:59;;;;;;;3.30;1.20;;;17.20;99.90;;;;;;5090529;28;20126;-73
2022/09/01 08:00:25;;;;;;;4.63;1.30;;;17.30;99.90;;;;;;5064754;28;20215;-75
2022/09/01 08:02:51;;;;;;;2.53;1.17;;;17.50;99.90;;;;;;5087176;28;20044;-71
2022/09/01 08:05:21;;;;;;;4.43;1.30;;;17.60;99.90;;;;;;5084437;28;20102;-72
2022/09/01 08:07:48;;;;;;;4.45;1.83;;;17.80;99.90;;;;;;5070628;28;20044;-69
2022/09/01 08:10:14;;;;;;;9.55;1.45;;;17.90;99.90;;;;;;5088454;28;20101;-69
2022/09/01 08:12:40;;;;;;;4.07;1.40;;;18.20;99.90;;;;;;5089201;28;20078;-69
2022/09/01 08:15:08;;;;;;;5.28;1.48;;;18.40;99.90;;;;;;5081162;28;20380;-71
2022/09/01 08:17:36;;;;;;;2.42;1.20;;;18.60;99.90;;;;;;5085071;28;20040;-70
2022/09/01 08:20:02;;;;;;;3.58;1.40;;;19.00;99.90;;;;;;5089774;28;20036;-72
2022/09/01 08:22:28;;;;;;;3.17;1.27;;;19.30;99.90;;;;;;5073881;28;20049;-73
2022/09/01 08:24:54;;;;;;;4.13;1.10;;;19.60;99.90;;;;;;5053713;28;20045;-77
2022/09/01 08:27:19;;;;;;;2.58;1.27;;;19.70;99.90;;;;;;5054860;28;20055;-73
2022/09/01 08:29:45;;;;;;;5.25;1.20;;;19.90;99.90;;;;;;5072974;28;20810;-72
2022/09/01 08:32:11;;;;;;;4.35;0.88;;;20.30;99.90;;;;;;5054922;28;20049;-75
2022/09/01 08:34:37;;;;;;;8.30;1.15;;;20.40;99.90;;;;;;5073089;28;20052;-71
2022/09/01 08:37:05;;;;;;;3.33;1.13;;;20.60;99.90;;;;;;5073020;28;20048;-73
2022/09/01 08:39:31;;;;;;;11.48;1.10;;;20.80;99.90;;;;;;5072893;28;20058;-73
2022/09/01 08:42:00;;;;;;;4.25;1.10;;;20.80;99.90;;;;;;5072537;28;20422;-76
2022/09/01 08:44:31;;;;;;;3.20;0.75;;;21.10;99.90;;;;;;5072637;28;20383;-73
2022/09/01 08:47:02;;;;;;;4.10;0.80;;;21.30;99.90;;;;;;5072989;28;20055;-77
2022/09/01 08:49:28;;;;;;;2.60;0.80;;;21.40;99.90;;;;;;5073008;28;20036;-80
2022/09/01 08:52:23;;;;;;;2.28;0.80;;;21.70;99.90;;;;;;5072647;28;20045;-76
2022/09/01 08:54:50;;;;;;;2.60;0.70;;;21.90;99.90;;;;;;5072731;28;20462;-79
2022/09/01 08:57:26;;;;;;;4.18;1.08;;;22.00;99.90;;;;;;5072395;28;20052;-72
2022/09/01 08:59:52;;;;;;;1.17;0.70;;;22.20;99.90;;;;;;5072873;28;20105;-78
2022/09/01 09:02:35;;;;;;;3.72;0.90;;;22.40;99.90;;;;;;5072631;28;20040;-81
2022/09/01 09:05:09;;;;;;;4.32;0.90;;;22.50;99.90;;;;;;5072494;28;20503;-71
2022/09/01 09:07:49;;;;;;;2.67;0.70;;;22.70;99.90;;;;;;5072587;28;20051;-71
2022/09/01 09:10:25;;;;;;;2.20;0.60;;;22.90;99.90;;;;;;5072422;28;20538;-70
2022/09/01 09:13:03;;;;;;;5.05;1.00;;;23.00;99.90;;;;;;5071930;28;20445;-77
2022/09/01 09:15:32;;;;;;;2.88;1.20;;;23.20;99.90;;;;;;5072247;28;20058;-74
2022/09/01 09:18:13;;;;;;;3.15;1.10;;;23.30;99.90;;;;;;5072550;28;20052;-74
2022/09/01 09:20:39;;;;;;;8.07;0.90;;;23.50;99.60;;;;;;5072390;28;20422;-73
2022/09/01 09:23:24;;;;;;;2.83;1.05;;;23.50;99.90;;;;;;5072247;28;20041;-76
2022/09/01 09:25:50;;;;;;;1.63;0.70;;;23.60;99.90;;;;;;5072144;28;20052;-74
2022/09/01 09:28:16;;;;;;;3.80;0.77;;;23.70;99.90;;;;;;5072073;28;20040;-71
2022/09/01 09:30:42;;;;;;;2.78;0.60;;;23.70;99.90;;;;;;5072330;28;20780;-71
2022/09/01 09:33:09;;;;;;;2.30;0.68;;;23.90;99.90;;;;;;5052852;28;20470;-76
2022/09/01 09:35:43;;;;;;;6.38;0.80;;;24.00;99.60;;;;;;5072052;28;20091;-75
2022/09/01 09:38:31;;;;;;;1.37;0.57;;;24.20;99.30;;;;;;5072151;28;20112;-76
2022/09/01 09:41:05;;;;;;;5.80;0.60;;;24.30;98.80;;;;;;5071913;28;20057;-72
2022/09/01 09:43:35;;;;;;;3.03;0.77;;;24.40;99.00;;;;;;5071562;28;20055;-79
2022/09/01 09:46:22;;;;;;;3.60;0.75;;;24.40;98.40;;;;;;5071723;28;20048;-78
2022/09/01 09:49:05;;;;;;;3.13;0.68;;;24.40;96.80;;;;;;5071575;28;20053;-78
2022/09/01 09:51:31;;;;;;;3.05;0.60;;;24.60;96.80;;;;;;5071668;28;20044;-74
2022/09/01 09:54:18;;;;;;;5.13;0.82;;;24.50;97.70;;;;;;5071635;28;20056;-71
2022/09/01 09:56:45;;;;;;;1.92;0.57;;;24.70;95.70;;;;;;5071946;28;20052;-74
2022/09/01 09:59:45;;;;;;;2.47;0.50;;;24.80;97.20;;;;;;5071476;28;20076;-75
2022/09/01 10:02:24;;;;;;;4.22;0.65;;;24.70;94.70;;;;;;5071421;28;20074;-76
2022/09/01 10:04:50;;;;;;;6.07;0.80;;;24.90;95.20;;;;;;5071618;28;20052;-72
2022/09/01 10:07:27;;;;;;;1.92;0.70;;;24.90;96.60;;;;;;5071420;28;20052;-71
2022/09/01 10:09:55;;;;;;;5.43;0.75;;;25.00;95.00;;;;;;5071447;28;20040;-77
2022/09/01 10:12:23;;;;;;;2.70;0.77;;;25.10;94.60;;;;;;5071548;28;20052;-75
2022/09/01 10:15:05;;;;;;;7.85;1.10;;;25.20;95.50;;;;;;5070782;28;20475;-72
2022/09/01 10:17:41;;;;;;;3.47;0.70;;;25.30;94.10;;;;;;5071246;28;20056;-72
2022/09/01 10:20:19;;;;;;;4.20;1.13;;;25.30;93.80;;;;;;5053221;28;20488;-72
2022/09/01 10:22:47;;;;;;;2.50;0.55;;;25.50;94.50;;;;;;5071030;28;20123;-71
2022/09/01 10:25:27;;;;;;;3.08;0.60;;;25.40;94.50;;;;;;5071097;28;20116;-71
2022/09/01 10:27:57;;;;;;;1.42;0.47;;;25.60;93.40;;;;;;5071218;28;20037;-72
2022/09/01 10:30:23;;;;;;;11.38;0.70;;;25.50;93.60;;;;;;5070673;28;20049;-73
2022/09/01 10:32:53;;;;;;;6.45;0.55;;;25.80;94.10;;;;;;5053257;28;20109;-71
2022/09/01 10:35:28;;;;;;;1.77;0.40;;;25.90;93.70;;;;;;5070857;28;20094;-77
2022/09/01 10:37:57;;;;;;;17.52;1.17;;;26.10;93.20;;;;;;5060713;28;20048;-73
2022/09/01 10:40:27;;;;;;;5.60;0.80;;;26.10;92.20;;;;;;5058773;28;20040;-73
2022/09/01 10:42:55;;;;;;;2.53;0.77;;;26.10;93.40;;;;;;5070941;28;20048;-72
2022/09/01 10:45:36;;;;;;;1.60;0.60;;;25.90;92.60;;;;;;5052519;28;20044;-71
2022/09/01 10:48:20;;;;;;;2.88;0.60;;;26.10;91.30;;;;;;5075214;28;20394;-76
2022/09/01 10:50:51;;;;;;;1.48;0.60;;;26.30;90.90;;;;;;5057424;28;20048;-73
2022/09/01 10:53:38;;;;;;;3.80;0.50;;;26.20;90.80;;;;;;5083651;28;20448;-75
2022/09/01 10:56:41;;;;;;;2.58;0.40;;;25.90;90.20;;;;;;5087683;28;20044;-78
2022/09/01 10:59:25;;;;;;;5.95;0.50;;;26.00;86.90;;;;;;5070525;28;20422;-72
2022/09/01 11:01:51;;;;;;;6.85;0.68;;;26.10;90.50;;;;;;5070042;28;20056;-72
2022/09/01 11:04:27;;;;;;;1.08;0.50;;;26.20;90.50;;;;;;5070232;28;20049;-80
2022/09/01 11:07:05;;;;;;;9.77;0.77;;;26.50;90.10;;;;;;5070276;28;20048;-71
2022/09/01 11:09:40;;;;;;;6.28;0.60;;;26.60;87.70;;;;;;5032744;28;20087;-75
2022/09/01 11:12:24;;;;;;;3.63;0.60;;;26.70;88.90;;;;;;5062284;28;20114;-72
2022/09/01 11:15:03;;;;;;;2.28;0.68;;;26.50;86.20;;;;;;5088217;28;20044;-72
2022/09/01 11:17:36;;;;;;;2.45;0.50;;;26.60;86.60;;;;;;5069957;28;20059;-76
2022/09/01 11:20:09;;;;;;;4.38;0.47;;;26.20;86.10;;;;;;5052206;28;20052;-71
2022/09/01 11:22:40;;;;;;;4.03;0.60;;;26.00;85.50;;;;;;5068804;28;20558;-73
2022/09/01 11:25:32;;;;;;;6.40;0.50;;;26.10;84.30;;;;;;5083797;28;20052;-71
2022/09/01 11:28:23;;;;;;;2.35;0.47;;;25.80;85.60;;;;;;5078892;28;20040;-73
2022/09/01 11:30:55;;;;;;;2.50;0.52;;;25.50;83.50;;;;;;5090157;28;20071;-80
2022/09/01 11:33:46;;;;;;;2.10;0.47;;;25.30;83.80;;;;;;5070003;28;20049;-75
2022/09/01 11:36:15;;;;;;;2.38;0.45;;;25.40;84.20;;;;;;5069960;28;20048;-78
2022/09/01 11:38:50;;;;;;;5.78;0.40;;;25.20;85.40;;;;;;5070205;28;20139;-72
2022/09/01 11:41:38;;;;;;;;;;;25.10;83.60;;;;;;5070306;28;20071;-73
2022/09/01 11:44:16;;;;;;;1.30;0.40;;;25.00;83.30;;;;;;4995708;28;19926;-75
2022/09/01 11:46:43;;;;;;;2.72;0.70;;;25.20;84.90;;;;;;4991130;28;20501;-71
2022/09/01 11:49:22;;;;;;;3.90;0.68;;;25.30;83.80;;;;;;5007446;28;20524;-79
2022/09/01 11:51:48;;;;;;;1.80;0.50;;;25.50;83.80;;;;;;5007799;28;20068;-71
2022/09/01 11:54:14;;;;;;;1.40;0.50;;;25.70;85.40;;;;;;5007536;28;20505;-78
2022/09/01 11:56:40;;;;;;;0.98;0.38;;;25.80;84.40;;;;;;5008899;28;20075;-73
2022/09/01 11:59:06;;;;;;;5.32;0.52;;;25.90;84.70;;;;;;4976918;28;20516;-72
2022/09/01 12:01:37;;;;;;;1.88;0.45;;;26.00;84.20;;;;;;4967089;28;20499;-72
2022/09/01 12:04:21;;;;;;;3.95;0.55;;;26.10;83.20;;;;;;4991909;28;20046;-75
2022/09/01 12:07:02;;;;;;;2.40;0.40;;;26.20;82.60;;;;;;4998760;28;20400;-75
2022/09/01 12:09:38;;;;;;;1.55;0.40;;;26.40;80.60;;;;;;4979451;28;20461;-77
2022/09/01 12:12:06;;;;;;;4.95;0.50;;;26.60;81.10;;;;;;4994929;28;20090;-73
2022/09/01 12:14:33;;;;;;;4.90;0.60;;;26.60;82.60;;;;;;4996412;28;20503;-78
2022/09/01 12:17:05;;;;;;;1.17;0.60;;;26.70;82.00;;;;;;4993107;28;20050;-77
2022/09/01 12:19:33;;;;;;;0.90;0.30;;;26.60;79.30;;;;;;4964844;28;20379;-71
2022/09/01 12:22:04;;;;;;;3.40;0.60;;;26.20;80.30;;;;;;5057368;28;20060;-77
2022/09/01 12:24:35;;;;;;;3.63;0.50;;;26.00;80.30;;;;;;5035553;28;20567;-72
2022/09/01 12:27:03;;;;;;;5.55;0.50;;;26.10;80.60;;;;;;5056128;28;20033;-84
2022/09/01 12:29:30;;;;;;;3.65;0.50;;;26.20;81.20;;;;;;5061658;28;20052;-75
2022/09/01 12:31:57;;;;;;;1.50;0.45;;;26.40;80.80;;;;;;5053508;28;20057;-74
2022/09/01 12:34:36;;;;;;;3.15;0.50;;;26.60;81.90;;;;;;5065142;28;20044;-80
2022/09/01 12:37:20;;;;;;;0.75;0.30;;;26.90;80.40;;;;;;5065070;28;20048;-70
2022/09/01 12:39:56;;;;;;;1.23;0.60;;;27.10;79.70;;;;;;5073322;28;20128;-73
2022/09/01 12:42:32;;;;;;;3.83;0.57;;;27.40;80.20;;;;;;5066174;28;20090;-69
2022/09/01 12:45:06;;;;;;;1.15;0.43;;;27.50;78.30;;;;;;5067546;28;20495;-74
2022/09/01 12:47:39;;;;;;;3.45;0.57;;;27.50;79.50;;;;;;5071216;28;20090;-79
2022/09/01 12:50:27;;;;;;;1.85;0.40;;;27.50;78.20;;;;;;5052944;28;20072;-71
2022/09/01 12:53:00;;;;;;;4.55;0.70;;;27.60;79.30;;;;;;5034401;28;20156;-82
2022/09/01 12:55:35;;;;;;;1.40;0.40;;;27.70;79.10;;;;;;5053711;28;20041;-80
2022/09/01 12:58:05;;;;;;;1.20;0.40;;;27.80;78.20;;;;;;5060350;28;20411;-76
2022/09/01 13:00:52;;;;;;;1.52;0.47;;;27.80;74.10;;;;;;5060793;28;20045;-74
2022/09/01 13:03:21;;;;;;;1.95;0.57;;;27.70;74.90;;;;;;5057431;28;20045;-78
2022/09/01 13:05:51;;;;;;;1.40;0.43;;;27.70;77.60;;;;;;5054838;28;20051;-80
2022/09/01 13:08:24;;;;;;;2.42;0.50;;;27.70;76.40;;;;;;5062990;28;20049;-80
2022/09/01 13:11:00;;;;;;;3.08;0.60;;;27.80;76.90;;;;;;5060258;28;20058;-74
2022/09/01 13:13:27;;;;;;;1.85;0.40;;;27.80;76.10;;;;;;5072092;28;20129;-73